createdAt,value
2018-07-08T00:01:13.531Z,52.50
2018-07-08T00:03:42.117Z,52.80
2018-07-08T00:06:10.415Z,52.80
2018-07-08T00:08:39.468Z,53.00
2018-07-08T00:11:07.908Z,53.00
2018-07-08T00:13:36.272Z,53.20
2018-07-08T00:16:04.812Z,53.30
2018-07-08T00:18:33.156Z,53.50
2018-07-08T00:21:01.503Z,53.50
2018-07-08T00:23:30.221Z,53.50
2018-07-08T00:25:59.405Z,53.70
2018-07-08T00:28:27.790Z,53.70
2018-07-08T00:30:56.139Z,53.90
2018-07-08T00:33:24.605Z,54.20
2018-07-08T00:35:53.112Z,54.20
2018-07-08T00:38:22.342Z,54.40
2018-07-08T00:40:50.695Z,54.70
2018-07-08T00:43:19.062Z,54.80
2018-07-08T00:45:47.521Z,55.10
2018-07-08T00:48:15.908Z,55.10
2018-07-08T00:50:44.204Z,55.20
2018-07-08T00:53:12.529Z,55.40
2018-07-08T00:55:40.866Z,55.50
2018-07-08T00:58:09.107Z,55.50
2018-07-08T01:00:38.425Z,55.60
2018-07-08T01:03:07.783Z,55.50
2018-07-08T01:05:36.202Z,55.40
2018-07-08T01:08:04.772Z,55.50
2018-07-08T01:10:33.044Z,55.70
2018-07-08T01:13:02.028Z,55.90
2018-07-08T01:15:30.383Z,55.90
2018-07-08T01:17:58.644Z,56.00
2018-07-08T01:20:26.986Z,56.00
2018-07-08T01:22:55.245Z,56.20
2018-07-08T01:25:34.791Z,56.20
2018-07-08T01:28:03.063Z,56.30
2018-07-08T01:30:31.909Z,56.40
2018-07-08T01:33:00.140Z,56.50
2018-07-08T01:35:28.408Z,56.50
2018-07-08T01:40:24.727Z,56.60
2018-07-08T01:42:52.980Z,56.80
2018-07-08T01:45:21.271Z,56.90
2018-07-08T01:47:49.614Z,57.00
2018-07-08T01:52:45.826Z,57.40
2018-07-08T01:55:14.128Z,57.40
2018-07-08T01:57:42.365Z,57.50
2018-07-08T02:00:10.636Z,57.40
2018-07-08T02:02:38.847Z,57.70
2018-07-08T02:05:07.152Z,57.40
2018-07-08T02:07:35.396Z,57.70
2018-07-08T02:10:03.697Z,57.90
2018-07-08T02:12:31.907Z,57.70
2018-07-08T02:15:00.112Z,58.40
2018-07-08T02:17:28.743Z,60.40
2018-07-08T02:19:56.997Z,60.60
2018-07-08T02:22:25.400Z,59.60
2018-07-08T02:24:53.675Z,59.50
2018-07-08T02:27:22.238Z,59.20
2018-07-08T02:29:50.555Z,58.50
2018-07-08T02:32:18.875Z,58.90
2018-07-08T02:34:47.135Z,59.10
2018-07-08T02:37:15.408Z,59.50
2018-07-08T02:39:43.970Z,59.50
2018-07-08T02:42:12.285Z,59.40
2018-07-08T02:44:40.648Z,59.10
2018-07-08T02:47:09.237Z,59.10
2018-07-08T02:49:37.629Z,59.30
2018-07-08T02:52:05.900Z,59.30
2018-07-08T02:54:34.157Z,59.10
2018-07-08T02:57:02.535Z,59.10
2018-07-08T02:59:30.829Z,59.20
2018-07-08T03:01:59.113Z,59.30
2018-07-08T03:04:27.372Z,59.40
2018-07-08T03:06:55.647Z,59.40
2018-07-08T03:09:24.620Z,59.50
2018-07-08T03:11:52.887Z,59.80
2018-07-08T03:14:21.062Z,59.50
2018-07-08T03:16:49.313Z,59.50
2018-07-08T03:19:17.599Z,59.70
2018-07-08T03:21:45.866Z,59.80
2018-07-08T03:24:14.144Z,59.90
2018-07-08T03:26:42.394Z,60.00
2018-07-08T03:29:10.608Z,60.20
2018-07-08T03:31:38.945Z,60.50
2018-07-08T03:34:07.204Z,60.90
2018-07-08T03:36:35.407Z,61.00
2018-07-08T03:39:04.919Z,61.20
2018-07-08T03:41:34.304Z,61.20
2018-07-08T03:44:02.571Z,61.20
2018-07-08T03:46:30.791Z,61.40
2018-07-08T03:48:59.181Z,61.20
2018-07-08T03:51:28.247Z,61.30
2018-07-08T03:53:56.874Z,61.30
2018-07-08T03:56:25.194Z,61.50
2018-07-08T03:58:54.052Z,61.70
2018-07-08T04:01:22.376Z,61.50
2018-07-08T04:03:50.737Z,61.60
2018-07-08T04:06:19.184Z,61.40
2018-07-08T04:08:47.424Z,61.40
2018-07-08T04:11:15.667Z,61.20
2018-07-08T04:13:43.859Z,61.10
2018-07-08T04:16:12.227Z,61.20
2018-07-08T04:18:40.500Z,61.00
2018-07-08T04:21:08.784Z,61.10
2018-07-08T04:23:36.996Z,61.30
2018-07-08T04:26:05.263Z,61.20
2018-07-08T04:28:33.900Z,61.10
2018-07-08T04:31:02.257Z,61.20
2018-07-08T04:33:30.479Z,61.30
2018-07-08T04:35:58.688Z,61.50
2018-07-08T04:38:26.891Z,61.70
2018-07-08T04:40:55.122Z,61.70
2018-07-08T04:43:23.475Z,61.70
2018-07-08T04:45:51.751Z,61.80
2018-07-08T04:48:19.937Z,61.70
2018-07-08T04:50:48.182Z,61.70
2018-07-08T04:53:16.411Z,61.50
2018-07-08T04:55:44.680Z,61.50
2018-07-08T04:58:12.955Z,61.50
2018-07-08T05:00:41.167Z,61.30
2018-07-08T05:03:09.420Z,61.40
2018-07-08T05:05:37.684Z,61.50
2018-07-08T05:08:05.954Z,61.00
2018-07-08T05:10:34.254Z,61.00
2018-07-08T05:13:02.461Z,60.80
2018-07-08T05:15:30.643Z,60.50
2018-07-08T05:17:58.907Z,60.50
2018-07-08T05:22:55.718Z,59.90
2018-07-08T05:25:23.984Z,60.10
2018-07-08T05:27:52.302Z,59.50
2018-07-08T05:30:20.540Z,59.50
2018-07-08T05:32:48.819Z,59.40
2018-07-08T05:35:17.131Z,59.20
2018-07-08T05:37:45.371Z,58.70
2018-07-08T05:40:13.633Z,58.40
2018-07-08T05:42:41.940Z,58.50
2018-07-08T05:45:10.229Z,58.70
2018-07-08T05:47:38.621Z,58.90
2018-07-08T05:50:07.305Z,58.30
2018-07-08T05:52:35.791Z,57.30
2018-07-08T05:55:04.050Z,57.10
2018-07-08T05:57:32.337Z,57.00
2018-07-08T06:00:00.990Z,57.10
2018-07-08T06:02:29.292Z,55.80
2018-07-08T06:04:57.564Z,56.30
2018-07-08T06:09:53.878Z,55.70
2018-07-08T06:12:22.876Z,55.90
2018-07-08T06:14:51.155Z,55.40
2018-07-08T06:17:20.624Z,55.40
2018-07-08T06:19:49.511Z,54.90
2018-07-08T06:24:45.955Z,55.20
2018-07-08T06:27:14.163Z,54.90
2018-07-08T06:29:42.459Z,54.50
2018-07-08T06:32:10.783Z,54.30
2018-07-08T06:34:39.046Z,53.50
2018-07-08T06:37:07.376Z,52.70
2018-07-08T06:39:35.548Z,53.20
2018-07-08T06:42:03.799Z,52.80
2018-07-08T06:44:32.231Z,52.80
2018-07-08T06:47:00.439Z,51.10
2018-07-08T06:49:28.737Z,51.80
2018-07-08T06:51:57.043Z,51.20
2018-07-08T06:54:25.329Z,51.10
2018-07-08T06:56:53.560Z,50.80
2018-07-08T06:59:21.820Z,51.40
2018-07-08T07:01:50.093Z,50.70
2018-07-08T07:04:18.333Z,50.50
2018-07-08T07:06:46.598Z,51.30
2018-07-08T07:09:14.783Z,51.30
2018-07-08T07:11:43.020Z,50.50
2018-07-08T07:14:12.498Z,50.40
2018-07-08T07:16:40.731Z,50.70
2018-07-08T07:19:09.072Z,50.60
2018-07-08T07:21:37.349Z,51.00
2018-07-08T07:24:05.820Z,49.60
2018-07-08T07:29:02.128Z,49.20
2018-07-08T07:31:30.356Z,48.10
2018-07-08T07:36:26.743Z,47.60
2018-07-08T07:38:55.282Z,47.20
2018-07-08T07:41:23.531Z,46.80
2018-07-08T07:43:52.201Z,46.70
2018-07-08T07:46:20.592Z,46.80
2018-07-08T07:48:48.831Z,46.20
2018-07-08T07:51:17.212Z,46.80
2018-07-08T07:53:45.457Z,46.70
2018-07-08T07:56:13.699Z,45.80
2018-07-08T07:58:41.923Z,44.90
2018-07-08T08:01:10.688Z,44.10
2018-07-08T08:03:38.959Z,44.10
2018-07-08T08:06:07.243Z,44.50
2018-07-08T08:08:35.514Z,44.00
2018-07-08T08:11:03.688Z,43.30
2018-07-08T08:13:31.935Z,42.90
2018-07-08T08:16:00.213Z,44.30
2018-07-08T08:18:28.484Z,43.20
2018-07-08T08:20:56.762Z,42.90
2018-07-08T08:23:24.998Z,41.90
2018-07-08T08:25:53.184Z,42.10
2018-07-08T08:28:22.072Z,42.30
2018-07-08T08:30:50.335Z,41.80
2018-07-08T08:33:18.564Z,41.90
2018-07-08T08:35:46.825Z,41.30
2018-07-08T08:38:15.065Z,41.50
2018-07-08T08:40:43.387Z,41.40
2018-07-08T08:43:11.587Z,41.00
2018-07-08T08:45:39.843Z,40.50
2018-07-08T08:48:08.063Z,41.20
2018-07-08T08:50:36.337Z,40.40
2018-07-08T08:53:04.804Z,40.10
2018-07-08T08:55:33.036Z,39.10
2018-07-08T08:58:01.330Z,39.40
2018-07-08T09:02:57.570Z,39.20
2018-07-08T09:05:25.809Z,38.40
2018-07-08T09:07:54.061Z,38.20
2018-07-08T09:10:22.699Z,37.90
2018-07-08T09:12:50.880Z,38.30
2018-07-08T09:15:19.107Z,38.00
2018-07-08T09:17:47.463Z,37.70
2018-07-08T09:20:15.754Z,37.80
2018-07-08T09:22:44.024Z,37.80
2018-07-08T09:25:12.263Z,37.10
2018-07-08T09:27:40.551Z,36.50
2018-07-08T09:30:10.271Z,36.40
2018-07-08T09:32:38.523Z,36.10
2018-07-08T09:35:06.792Z,34.80
2018-07-08T09:37:35.068Z,34.70
2018-07-08T09:40:03.419Z,33.80
2018-07-08T09:42:31.707Z,34.30
2018-07-08T09:44:59.956Z,33.70
2018-07-08T09:47:28.270Z,32.30
2018-07-08T09:49:56.466Z,31.10
2018-07-08T09:52:24.696Z,30.00
2018-07-08T09:54:52.978Z,29.20
2018-07-08T09:57:21.305Z,28.80
2018-07-08T10:02:24.687Z,28.10
2018-07-08T10:04:52.944Z,26.90
2018-07-08T10:07:21.287Z,27.30
2018-07-08T10:09:49.562Z,25.90
2018-07-08T10:12:17.900Z,26.30
2018-07-08T10:14:46.129Z,26.80
2018-07-08T10:17:14.640Z,27.60
2018-07-08T10:19:42.990Z,28.40
2018-07-08T10:22:11.251Z,30.10
2018-07-08T10:24:39.531Z,30.00
2018-07-08T10:28:19.044Z,30.40
2018-07-08T10:30:47.464Z,31.20
2018-07-08T10:33:15.721Z,30.60
2018-07-08T10:35:56.044Z,31.50
2018-07-08T10:38:24.264Z,32.30
2018-07-08T10:40:52.561Z,32.20
2018-07-08T10:43:20.949Z,32.40
2018-07-08T10:45:49.191Z,33.70
2018-07-08T10:50:45.652Z,34.30
2018-07-08T10:53:13.971Z,34.00
2018-07-08T10:55:42.244Z,34.50
2018-07-08T10:58:11.203Z,34.80
2018-07-08T11:03:07.605Z,33.40
2018-07-08T11:05:36.095Z,33.70
2018-07-08T11:08:04.348Z,34.30
2018-07-08T11:10:32.589Z,34.10
2018-07-08T11:13:00.871Z,33.10
2018-07-08T11:15:29.219Z,33.70
2018-07-08T11:17:57.565Z,33.90
2018-07-08T11:20:25.935Z,33.90
2018-07-08T11:22:54.260Z,33.70
2018-07-08T11:25:22.561Z,34.20
2018-07-08T11:27:50.863Z,32.90
2018-07-08T11:30:19.219Z,33.40
2018-07-08T11:32:47.598Z,33.80
2018-07-08T11:35:15.900Z,33.40
2018-07-08T11:37:44.188Z,33.30
2018-07-08T11:40:12.452Z,32.90
2018-07-08T11:42:40.840Z,33.60
2018-07-08T11:45:09.140Z,32.00
2018-07-08T11:47:37.509Z,33.40
2018-07-08T11:50:05.952Z,33.20
2018-07-08T11:52:34.900Z,32.80
2018-07-08T11:55:03.284Z,32.70
2018-07-08T11:57:31.544Z,32.40
2018-07-08T11:59:59.957Z,32.80
2018-07-08T12:02:28.225Z,33.10
2018-07-08T12:04:56.723Z,33.10
2018-07-08T12:07:25.094Z,32.60
2018-07-08T12:09:53.389Z,32.70
2018-07-08T12:12:22.761Z,32.20
2018-07-08T12:14:51.022Z,32.30
2018-07-08T12:17:19.239Z,31.90
2018-07-08T12:19:48.017Z,32.20
2018-07-08T12:22:16.423Z,32.40
2018-07-08T12:24:44.655Z,32.90
2018-07-08T12:27:13.208Z,32.00
2018-07-08T12:29:41.491Z,32.70
2018-07-08T12:34:37.777Z,32.70
2018-07-08T12:37:06.202Z,33.50
2018-07-08T12:39:34.963Z,32.80
2018-07-08T12:42:03.258Z,32.90
2018-07-08T12:44:31.569Z,32.00
2018-07-08T12:47:00.304Z,32.40
2018-07-08T12:49:28.625Z,32.40
2018-07-08T12:51:57.207Z,31.80
2018-07-08T12:54:26.008Z,32.00
2018-07-08T12:56:54.283Z,32.30
2018-07-08T12:59:22.646Z,31.80
2018-07-08T13:01:50.939Z,31.70
2018-07-08T13:04:19.232Z,32.00
2018-07-08T13:06:47.623Z,31.70
2018-07-08T13:09:16.046Z,32.80
2018-07-08T13:11:44.459Z,31.20
2018-07-08T13:14:12.664Z,32.40
2018-07-08T13:16:40.885Z,31.70
2018-07-08T13:19:09.176Z,31.40
2018-07-08T13:21:37.553Z,32.00
2018-07-08T13:24:05.791Z,32.60
2018-07-08T13:26:34.045Z,31.60
2018-07-08T13:29:02.562Z,31.10
2018-07-08T13:31:30.833Z,31.50
2018-07-08T13:33:59.191Z,31.40
2018-07-08T13:36:27.427Z,31.30
2018-07-08T13:38:55.850Z,30.90
2018-07-08T13:41:24.034Z,30.60
2018-07-08T13:43:52.232Z,32.20
2018-07-08T13:46:20.522Z,32.90
2018-07-08T13:48:48.829Z,31.70
2018-07-08T13:51:17.026Z,31.10
2018-07-08T13:53:46.269Z,31.20
2018-07-08T13:56:14.463Z,30.50
2018-07-08T13:58:42.779Z,30.40
2018-07-08T14:01:11.040Z,31.20
2018-07-08T14:06:08.119Z,31.30
2018-07-08T14:08:36.360Z,30.60
2018-07-08T14:11:04.725Z,30.40
2018-07-08T14:13:32.943Z,30.20
2018-07-08T14:16:01.148Z,30.60
2018-07-08T14:18:29.392Z,30.50
2018-07-08T14:20:57.660Z,31.50
2018-07-08T14:23:25.959Z,30.60
2018-07-08T14:25:54.151Z,30.40
2018-07-08T14:28:22.372Z,30.60
2018-07-08T14:30:51.039Z,31.20
2018-07-08T14:33:19.256Z,31.30
2018-07-08T14:35:47.523Z,30.10
2018-07-08T14:38:15.732Z,30.10
2018-07-08T14:40:44.027Z,29.20
2018-07-08T14:43:12.236Z,30.00
2018-07-08T14:45:40.486Z,30.10
2018-07-08T14:48:08.754Z,29.60
2018-07-08T14:50:36.992Z,29.70
2018-07-08T14:53:05.495Z,30.00
2018-07-08T14:55:33.819Z,29.70
2018-07-08T14:58:02.099Z,29.60
2018-07-08T15:00:30.351Z,30.20
2018-07-08T15:02:58.676Z,30.50
2018-07-08T15:07:54.916Z,29.50
2018-07-08T15:10:23.155Z,29.30
2018-07-08T15:12:51.495Z,28.70
2018-07-08T15:15:19.827Z,28.70
2018-07-08T15:17:48.076Z,28.90
2018-07-08T15:20:16.361Z,30.30
2018-07-08T15:22:44.667Z,28.80
2018-07-08T15:25:13.084Z,28.80
2018-07-08T15:27:42.023Z,28.80
2018-07-08T15:30:10.294Z,28.90
2018-07-08T15:32:38.568Z,29.40
2018-07-08T15:35:06.819Z,28.30
2018-07-08T15:37:35.173Z,28.80
2018-07-08T15:40:03.462Z,28.90
2018-07-08T15:42:31.919Z,29.70
2018-07-08T15:45:00.409Z,29.60
2018-07-08T15:47:28.791Z,29.70
2018-07-08T15:49:57.097Z,29.40
2018-07-08T15:52:25.370Z,29.70
2018-07-08T15:54:53.839Z,29.80
2018-07-08T15:57:22.151Z,30.10
2018-07-08T15:59:50.404Z,29.20
2018-07-08T16:02:18.862Z,29.50
2018-07-08T16:04:47.097Z,29.40
2018-07-08T16:07:15.339Z,29.00
2018-07-08T16:09:43.561Z,29.80
2018-07-08T16:12:11.890Z,29.70
2018-07-08T16:14:40.771Z,29.30
2018-07-08T16:17:09.545Z,29.70
2018-07-08T16:19:37.872Z,29.00
2018-07-08T16:22:06.160Z,29.80
2018-07-08T16:24:34.426Z,29.50
2018-07-08T16:27:02.697Z,29.90
2018-07-08T16:29:30.915Z,30.10
2018-07-08T16:31:59.476Z,29.90
2018-07-08T16:34:27.738Z,29.40
2018-07-08T16:36:55.969Z,29.60
2018-07-08T16:39:24.308Z,29.60
2018-07-08T16:41:52.911Z,29.50
2018-07-08T16:44:21.210Z,30.00
2018-07-08T16:46:49.536Z,29.90
2018-07-08T16:51:45.957Z,31.30
2018-07-08T16:54:14.717Z,29.70
2018-07-08T16:56:43.102Z,29.50
2018-07-08T16:59:11.618Z,29.60
2018-07-08T17:01:39.872Z,30.10
2018-07-08T17:04:08.132Z,30.40
2018-07-08T17:06:36.899Z,30.60
2018-07-08T17:09:07.003Z,30.20
2018-07-08T17:11:35.320Z,31.00
2018-07-08T17:14:03.604Z,30.10
2018-07-08T17:16:31.983Z,30.20
2018-07-08T17:19:00.288Z,30.60
2018-07-08T17:21:28.527Z,30.40
2018-07-08T17:23:56.781Z,30.30
2018-07-08T17:26:25.151Z,30.50
2018-07-08T17:28:53.684Z,30.10
2018-07-08T17:31:22.625Z,30.30
2018-07-08T17:33:50.918Z,30.90
2018-07-08T17:36:19.175Z,32.30
2018-07-08T17:38:47.463Z,31.30
2018-07-08T17:41:15.763Z,30.80
2018-07-08T17:43:44.636Z,31.00
2018-07-08T17:46:12.915Z,31.30
2018-07-08T17:48:41.248Z,30.50
2018-07-08T17:51:09.475Z,30.90
2018-07-08T17:53:37.777Z,30.50
2018-07-08T17:56:06.048Z,30.50
2018-07-08T17:58:34.441Z,30.20
2018-07-08T18:01:03.383Z,30.30
2018-07-08T18:03:31.645Z,30.80
2018-07-08T18:05:59.997Z,30.60
2018-07-08T18:08:28.486Z,30.70
2018-07-08T18:10:56.748Z,31.10
2018-07-08T18:13:25.024Z,31.10
2018-07-08T18:15:53.302Z,31.10
2018-07-08T18:18:21.760Z,31.10
2018-07-08T18:20:50.058Z,30.70
2018-07-08T18:23:19.279Z,30.70
2018-07-08T18:25:47.926Z,31.00
2018-07-08T18:28:16.257Z,31.30
2018-07-08T18:30:44.619Z,31.20
2018-07-08T18:33:12.836Z,31.70
2018-07-08T18:35:41.057Z,31.40
2018-07-08T18:38:09.375Z,31.50
2018-07-08T18:40:37.619Z,30.90
2018-07-08T18:43:05.970Z,31.50
2018-07-08T18:45:34.215Z,31.40
2018-07-08T18:48:02.516Z,31.80
2018-07-08T18:50:30.721Z,32.10
2018-07-08T18:52:59.005Z,32.10
2018-07-08T18:55:28.417Z,31.90
2018-07-08T18:57:56.769Z,32.20
2018-07-08T19:00:25.107Z,32.40
2018-07-08T19:02:53.365Z,33.20
2018-07-08T19:05:21.596Z,34.20
2018-07-08T19:07:50.182Z,34.70
2018-07-08T19:10:18.451Z,35.10
2018-07-08T19:12:46.759Z,35.30
2018-07-08T19:15:15.004Z,35.40
2018-07-08T19:17:43.236Z,35.50
2018-07-08T19:20:11.590Z,35.70
2018-07-08T19:22:39.860Z,35.50
2018-07-08T19:25:08.255Z,35.70
2018-07-08T19:27:36.593Z,35.70
2018-07-08T19:30:05.196Z,35.80
2018-07-08T19:35:01.835Z,36.30
2018-07-08T19:37:30.632Z,36.20
2018-07-08T19:39:58.939Z,36.40
2018-07-08T19:42:27.458Z,36.20
2018-07-08T19:44:56.682Z,36.10
2018-07-08T19:47:25.002Z,36.10
2018-07-08T19:49:53.267Z,36.30
2018-07-08T19:54:49.551Z,36.30
2018-07-08T19:57:18.010Z,36.40
2018-07-08T19:59:46.400Z,36.20
2018-07-08T20:02:14.655Z,36.10
2018-07-08T20:04:43.463Z,36.40
2018-07-08T20:09:39.855Z,36.60
2018-07-08T20:12:08.078Z,36.60
2018-07-08T20:14:36.387Z,36.60
2018-07-08T20:17:04.720Z,36.60
2018-07-08T20:19:33.135Z,36.80
2018-07-08T20:22:01.516Z,36.70
2018-07-08T20:24:30.207Z,37.00
2018-07-08T20:26:58.540Z,37.10
2018-07-08T20:29:26.793Z,37.50
2018-07-08T20:31:55.079Z,37.60
2018-07-08T20:34:23.427Z,37.70
2018-07-08T20:36:52.366Z,38.00
2018-07-08T20:39:20.654Z,38.00
2018-07-08T20:41:48.950Z,38.10
2018-07-08T20:44:17.328Z,38.70
2018-07-08T20:46:45.734Z,38.60
2018-07-08T20:49:14.284Z,38.70
2018-07-08T20:51:42.608Z,39.00
2018-07-08T20:54:10.952Z,39.50
2018-07-08T20:56:39.250Z,39.40
2018-07-08T20:59:07.580Z,39.40
2018-07-08T21:01:35.933Z,39.70
2018-07-08T21:04:04.217Z,39.40
2018-07-08T21:06:32.510Z,39.80
2018-07-08T21:09:00.903Z,39.70
2018-07-08T21:11:29.799Z,40.00
2018-07-08T21:13:58.120Z,40.20
2018-07-08T21:16:26.406Z,40.20
2018-07-08T21:18:54.776Z,40.00
2018-07-08T21:21:24.436Z,39.70
2018-07-08T21:23:52.782Z,39.80
2018-07-08T21:26:21.579Z,40.00
2018-07-08T21:28:49.942Z,39.90
2018-07-08T21:31:18.246Z,40.50
2018-07-08T21:33:46.701Z,40.20
2018-07-08T21:38:43.696Z,40.30
2018-07-08T21:41:12.270Z,40.60
2018-07-08T21:43:40.579Z,40.50
2018-07-08T21:46:08.939Z,40.50
2018-07-08T21:48:37.285Z,40.40
2018-07-08T21:51:05.715Z,40.80
2018-07-08T21:53:33.991Z,40.90
2018-07-08T21:56:02.292Z,40.00
2018-07-08T21:58:30.560Z,40.30
2018-07-08T22:01:11.412Z,40.40
2018-07-08T22:03:40.492Z,39.90
2018-07-08T22:06:08.772Z,40.40
2018-07-08T22:08:37.103Z,40.30
2018-07-08T22:11:06.940Z,40.30
2018-07-08T22:13:35.721Z,40.30
2018-07-08T22:16:04.309Z,40.40
2018-07-08T22:18:33.168Z,40.60
2018-07-08T22:21:01.879Z,40.70
2018-07-08T22:23:30.343Z,40.70
2018-07-08T22:25:59.090Z,40.60
2018-07-08T22:28:27.336Z,40.80
2018-07-08T22:30:55.660Z,40.80
2018-07-08T22:33:23.895Z,40.70
2018-07-08T22:35:52.251Z,41.00
2018-07-08T22:38:20.563Z,41.00
2018-07-08T22:40:49.442Z,41.30
2018-07-08T22:43:17.692Z,41.00
2018-07-08T22:45:46.342Z,41.50
2018-07-08T22:48:14.604Z,41.60
2018-07-08T22:50:42.976Z,41.80
2018-07-08T22:53:11.185Z,41.60
2018-07-08T22:55:39.405Z,41.70
2018-07-08T22:58:07.653Z,41.80
2018-07-08T23:00:47.382Z,41.80
2018-07-08T23:03:34.832Z,41.90
2018-07-08T23:06:03.147Z,42.30
2018-07-08T23:08:31.384Z,42.30
2018-07-08T23:10:59.718Z,42.60
2018-07-08T23:13:28.005Z,42.60
2018-07-08T23:15:56.366Z,42.60
2018-07-08T23:18:24.649Z,42.80
2018-07-08T23:20:52.904Z,43.00
2018-07-08T23:23:21.268Z,42.90
2018-07-08T23:25:49.575Z,43.20
2018-07-08T23:28:17.817Z,43.30
2018-07-08T23:30:46.129Z,43.20
2018-07-08T23:33:15.046Z,43.10
2018-07-08T23:38:11.427Z,43.10
2018-07-08T23:40:39.738Z,43.30
2018-07-08T23:43:08.173Z,43.30
2018-07-08T23:45:36.488Z,43.40
2018-07-08T23:48:06.217Z,43.60
2018-07-08T23:50:34.485Z,43.50
2018-07-08T23:53:02.736Z,43.60
2018-07-08T23:55:30.982Z,43.60
2018-07-08T23:57:59.326Z,43.70
